Time;durP1;ratioP1;P1;durP2;ratioP2;P2;SDS_P1;SDS_P2;PMS_P1;PMS_P2;Temp;Humidity;BMP_temperature;BMP_pressure;BME280_temperature;BME280_humidity;BME280_pressure;Samples;Min_cycle;Max_cycle;Signal;HPM_P1;HPM_P2
2022/06/05 00:00:58;;;;;;;4.20;3.00;;;21.40;99.90;;;;;;6328378;28;20226;-61
2022/06/05 00:04:13;;;;;;;3.70;3.27;;;21.20;99.90;;;;;;6328977;28;20272;-61
2022/06/05 00:07:22;;;;;;;3.03;2.70;;;21.10;99.90;;;;;;6327307;28;20231;-62
2022/06/05 00:10:28;;;;;;;2.90;2.67;;;21.10;99.90;;;;;;6327448;28;20230;-62
2022/06/05 00:13:38;;;;;;;5.30;3.30;;;21.00;99.90;;;;;;6326982;28;20273;-62
2022/06/05 00:16:44;;;;;;;4.10;3.30;;;21.10;99.90;;;;;;6327208;28;20252;-62
2022/06/05 00:19:49;;;;;;;4.87;3.30;;;21.10;99.90;;;;;;6326736;28;20555;-62
2022/06/05 00:22:52;;;;;;;3.10;2.80;;;21.10;99.90;;;;;;6327173;28;20319;-62
2022/06/05 00:26:00;;;;;;;2.90;2.50;;;21.10;99.90;;;;;;6326592;28;20202;-63
2022/06/05 00:29:18;;;;;;;4.83;2.57;;;21.10;99.90;;;;;;6326825;28;20193;-62
2022/06/05 00:32:29;;;;;;;6.20;3.20;;;21.10;99.90;;;;;;6326629;28;20222;-62
2022/06/05 00:35:41;;;;;;;4.40;2.60;;;21.10;99.90;;;;;;6317332;28;20238;-62
2022/06/05 00:38:52;;;;;;;8.70;3.37;;;21.00;99.90;;;;;;6326549;28;20709;-62
2022/06/05 00:41:59;;;;;;;4.10;3.30;;;21.00;99.90;;;;;;6326578;28;20245;-63
2022/06/05 00:45:07;;;;;;;3.13;2.93;;;21.00;99.90;;;;;;6326424;28;20674;-62
2022/06/05 00:48:13;;;;;;;3.30;3.00;;;20.90;99.90;;;;;;6326575;28;20226;-62
2022/06/05 00:51:16;;;;;;;4.20;3.60;;;20.80;99.90;;;;;;6326392;28;20231;-62
2022/06/05 00:54:19;;;;;;;3.47;2.90;;;20.70;99.90;;;;;;6325663;28;20261;-62
2022/06/05 00:57:26;;;;;;;5.20;3.43;;;20.60;99.90;;;;;;6325690;28;20256;-62
2022/06/05 01:00:34;;;;;;;4.60;3.43;;;20.50;99.90;;;;;;6325920;28;20237;-62
2022/06/05 01:03:39;;;;;;;4.23;3.83;;;20.40;99.90;;;;;;6325833;28;20309;-62
2022/06/05 01:06:43;;;;;;;4.13;3.73;;;20.40;99.90;;;;;;6325672;28;20229;-62
2022/06/05 01:09:48;;;;;;;4.17;3.80;;;20.40;99.90;;;;;;6325942;28;20563;-62
2022/06/05 01:12:59;;;;;;;3.53;3.23;;;20.50;99.90;;;;;;6325520;28;20234;-62
2022/06/05 01:16:21;;;;;;;4.10;3.37;;;20.50;99.90;;;;;;6325586;28;20569;-62
2022/06/05 01:19:40;;;;;;;4.90;3.90;;;20.60;99.90;;;;;;6325421;28;20695;-62
2022/06/05 01:23:02;;;;;;;4.57;3.63;;;20.50;99.90;;;;;;6325441;28;20235;-62
2022/06/05 01:26:14;;;;;;;3.90;3.57;;;20.50;99.90;;;;;;6325485;28;20300;-62
2022/06/05 01:29:21;;;;;;;3.57;3.33;;;20.50;99.90;;;;;;6325570;28;20226;-62
2022/06/05 01:32:30;;;;;;;5.70;3.80;;;20.40;99.90;;;;;;6325549;28;20234;-62
2022/06/05 01:35:39;;;;;;;4.53;4.13;;;20.40;99.90;;;;;;6320781;28;20566;-62
2022/06/05 01:38:51;;;;;;;4.20;3.80;;;20.50;99.90;;;;;;6325062;28;20230;-62
2022/06/05 01:41:58;;;;;;;4.43;3.80;;;20.40;99.90;;;;;;6325221;28;20230;-62
2022/06/05 01:45:05;;;;;;;4.97;4.47;;;20.40;99.90;;;;;;6325075;28;20230;-62
2022/06/05 01:48:14;;;;;;;5.13;4.10;;;20.50;99.90;;;;;;6325153;28;20324;-62
2022/06/05 01:51:22;;;;;;;4.20;3.80;;;20.40;99.90;;;;;;6325041;28;20288;-62
2022/06/05 01:54:47;;;;;;;3.47;3.17;;;20.40;99.90;;;;;;6324800;28;20249;-62
2022/06/05 01:57:55;;;;;;;4.37;3.50;;;20.30;99.90;;;;;;6324655;28;20231;-62
2022/06/05 02:01:00;;;;;;;6.23;4.13;;;20.30;99.90;;;;;;6324713;28;20241;-62
2022/06/05 02:04:11;;;;;;;4.60;4.20;;;20.30;99.90;;;;;;6324783;28;20241;-62
2022/06/05 02:07:18;;;;;;;7.10;4.80;;;20.30;99.90;;;;;;6324608;28;20229;-62
2022/06/05 02:10:26;;;;;;;7.53;4.97;;;20.20;99.90;;;;;;6324314;28;20222;-62
2022/06/05 02:13:31;;;;;;;6.03;4.43;;;20.20;99.90;;;;;;6324073;28;20585;-62
2022/06/05 02:16:36;;;;;;;6.10;3.90;;;20.20;99.90;;;;;;6324257;28;20226;-62
2022/06/05 02:19:40;;;;;;;6.63;4.67;;;20.10;99.90;;;;;;6323936;28;20252;-62
2022/06/05 02:22:46;;;;;;;7.10;4.00;;;20.20;99.90;;;;;;6324113;28;20237;-62
2022/06/05 02:25:50;;;;;;;6.13;4.47;;;20.20;99.90;;;;;;6324040;28;20234;-62
2022/06/05 02:28:56;;;;;;;6.13;5.63;;;20.20;99.90;;;;;;6324227;28;20696;-62
2022/06/05 02:32:23;;;;;;;6.07;5.57;;;20.20;99.90;;;;;;6323701;28;20233;-62
2022/06/05 02:35:42;;;;;;;7.53;5.53;;;20.20;99.90;;;;;;6324364;28;20226;-62
2022/06/05 02:38:56;;;;;;;7.40;5.50;;;20.10;99.90;;;;;;6319564;28;20332;-62
2022/06/05 02:42:07;;;;;;;6.30;5.70;;;20.20;99.90;;;;;;6324110;28;20234;-62
2022/06/05 02:45:19;;;;;;;6.17;5.57;;;20.20;99.90;;;;;;6324282;28;20230;-62
2022/06/05 02:48:27;;;;;;;5.67;5.03;;;20.10;99.90;;;;;;6323833;28;20245;-62
2022/06/05 02:51:35;;;;;;;6.27;5.30;;;20.10;99.90;;;;;;6323846;28;20234;-63
2022/06/05 02:54:41;;;;;;;6.30;5.00;;;20.20;99.90;;;;;;6323742;28;20227;-62
2022/06/05 02:57:45;;;;;;;7.43;4.90;;;20.20;99.90;;;;;;6326422;28;20229;-62
2022/06/05 03:04:07;;;;;;;6.23;4.07;;;20.10;99.90;;;;;;6329474;28;20231;-62
2022/06/05 03:07:11;;;;;;;5.70;3.57;;;20.10;99.90;;;;;;6328229;28;20280;-62
2022/06/05 03:10:14;;;;;;;4.73;4.13;;;20.10;99.90;;;;;;6327812;28;20228;-62
2022/06/05 03:13:18;;;;;;;4.53;4.23;;;20.10;99.90;;;;;;6328458;28;20245;-62
2022/06/05 03:16:22;;;;;;;4.13;3.73;;;20.10;99.90;;;;;;6328531;28;20230;-62
2022/06/05 03:19:27;;;;;;;5.23;4.63;;;20.00;99.90;;;;;;6328332;28;20234;-62
2022/06/05 03:22:30;;;;;;;5.00;4.53;;;20.00;99.90;;;;;;6328552;28;20665;-62
2022/06/05 03:25:33;;;;;;;6.70;4.40;;;20.00;99.90;;;;;;6328478;28;20226;-62
2022/06/05 03:28:36;;;;;;;4.83;4.33;;;19.90;99.90;;;;;;6328471;28;20233;-62
2022/06/05 03:31:41;;;;;;;4.20;3.90;;;20.00;99.90;;;;;;6327852;28;20292;-62
2022/06/05 03:34:44;;;;;;;5.00;3.93;;;20.00;99.90;;;;;;6327898;28;20230;-62
2022/06/05 03:37:48;;;;;;;5.13;4.63;;;20.00;99.90;;;;;;6328061;28;20231;-62
2022/06/05 03:40:51;;;;;;;4.27;3.97;;;19.90;99.90;;;;;;6328361;28;20202;-62
2022/06/05 03:43:55;;;;;;;4.30;3.90;;;19.90;99.90;;;;;;6323443;28;20222;-62
2022/06/05 03:46:59;;;;;;;4.67;4.27;;;19.90;99.90;;;;;;6327649;28;20625;-62
2022/06/05 03:50:02;;;;;;;6.20;4.40;;;19.90;99.90;;;;;;6328261;28;20347;-62
2022/06/05 03:53:06;;;;;;;8.53;3.87;;;19.80;99.90;;;;;;6328053;28;20238;-62
2022/06/05 03:56:10;;;;;;;4.43;4.03;;;19.90;99.90;;;;;;6328313;28;20708;-62
2022/06/05 03:59:13;;;;;;;5.00;4.60;;;19.90;99.90;;;;;;6328148;28;20230;-62
2022/06/05 04:02:18;;;;;;;3.90;3.60;;;19.90;99.90;;;;;;6327490;28;20239;-62
2022/06/05 04:05:22;;;;;;;4.17;3.87;;;20.00;99.90;;;;;;6327563;28;20226;-62
2022/06/05 04:08:25;;;;;;;5.10;4.60;;;20.00;99.90;;;;;;6326880;28;20237;-62
2022/06/05 04:11:31;;;;;;;4.53;4.13;;;20.10;99.90;;;;;;6327465;28;20230;-62
2022/06/05 04:14:34;;;;;;;4.53;4.07;;;20.20;99.90;;;;;;6327447;28;20230;-62
2022/06/05 04:17:38;;;;;;;8.27;4.70;;;20.30;99.90;;;;;;6327124;28;20234;-62
2022/06/05 04:20:41;;;;;;;4.90;4.50;;;20.40;99.90;;;;;;6327173;28;20242;-62
2022/06/05 04:23:45;;;;;;;5.50;5.10;;;20.40;99.90;;;;;;6327297;28;20245;-62
2022/06/05 04:26:48;;;;;;;5.27;4.70;;;20.50;99.90;;;;;;6326650;28;20233;-62
2022/06/05 04:29:51;;;;;;;7.70;4.77;;;20.60;99.90;;;;;;6327234;28;20226;-62
2022/06/05 04:32:56;;;;;;;5.53;4.20;;;20.70;99.90;;;;;;6326611;28;20234;-62
2022/06/05 04:35:59;;;;;;;5.20;4.37;;;20.80;99.90;;;;;;6326512;28;20710;-62
2022/06/05 04:39:03;;;;;;;4.67;4.27;;;20.90;99.90;;;;;;6326311;28;20545;-62
2022/06/05 04:42:07;;;;;;;5.27;4.87;;;21.00;99.90;;;;;;6326344;28;20234;-62
2022/06/05 04:45:10;;;;;;;6.63;4.67;;;21.00;99.90;;;;;;6326508;28;20255;-62
2022/06/05 04:48:15;;;;;;;4.63;4.20;;;21.10;99.90;;;;;;6322054;28;20672;-62
2022/06/05 04:51:19;;;;;;;5.97;4.13;;;21.20;99.90;;;;;;6326285;28;20237;-63
2022/06/05 04:54:22;;;;;;;4.67;4.27;;;21.30;99.90;;;;;;6326175;28;20234;-62
2022/06/05 04:57:26;;;;;;;5.60;5.10;;;21.40;99.90;;;;;;6326333;28;20241;-62
2022/06/05 05:00:29;;;;;;;5.47;4.97;;;21.60;99.90;;;;;;6326004;28;20241;-62
2022/06/05 05:03:33;;;;;;;6.00;5.30;;;21.70;99.90;;;;;;6325523;28;20249;-62
2022/06/05 05:06:38;;;;;;;7.90;5.60;;;21.90;99.90;;;;;;6325764;28;20226;-62
2022/06/05 05:09:41;;;;;;;6.03;5.53;;;21.90;99.90;;;;;;6325885;28;20237;-63
2022/06/05 05:12:45;;;;;;;6.50;5.47;;;22.10;99.90;;;;;;6325381;28;20226;-62
2022/06/05 05:15:49;;;;;;;6.13;5.53;;;22.10;99.90;;;;;;6325945;28;20234;-62
2022/06/05 05:18:54;;;;;;;6.57;6.07;;;22.20;99.90;;;;;;6324788;28;20664;-62
2022/06/05 05:21:58;;;;;;;6.23;5.63;;;22.40;99.90;;;;;;6325488;28;20246;-63
2022/06/05 05:25:01;;;;;;;6.40;5.90;;;22.40;99.90;;;;;;6325644;28;20230;-62
2022/06/05 05:28:06;;;;;;;6.70;5.63;;;22.50;99.90;;;;;;6325326;28;20569;-62
2022/06/05 05:31:10;;;;;;;6.60;5.90;;;22.70;99.90;;;;;;6325462;28;20375;-62
2022/06/05 05:34:16;;;;;;;8.00;7.03;;;22.80;99.90;;;;;;6324911;28;20259;-62
2022/06/05 05:37:19;;;;;;;7.00;6.40;;;22.80;99.90;;;;;;6325516;28;20226;-62
2022/06/05 05:43:43;;;;;;;7.17;6.57;;;23.20;99.90;;;;;;6325074;28;20703;-63
2022/06/05 05:46:48;;;;;;;6.13;5.40;;;23.30;99.90;;;;;;6325019;28;20230;-63
2022/06/05 05:49:53;;;;;;;6.40;5.90;;;23.40;99.90;;;;;;6315526;28;20609;-63
2022/06/05 05:52:57;;;;;;;6.67;6.17;;;23.40;99.90;;;;;;6324524;28;20610;-63
2022/06/05 05:56:06;;;;;;;6.50;5.90;;;23.60;99.90;;;;;;6325315;28;20202;-63
2022/06/05 05:59:10;;;;;;;5.50;5.10;;;23.70;99.90;;;;;;6324383;28;20667;-63
2022/06/05 06:02:18;;;;;;;6.30;5.63;;;23.90;99.90;;;;;;6325140;28;20226;-63
2022/06/05 06:05:23;;;;;;;5.33;4.90;;;24.20;99.90;;;;;;6324770;28;20690;-63
2022/06/05 06:08:26;;;;;;;7.23;5.93;;;24.60;99.90;;;;;;6324347;28;20240;-63
2022/06/05 06:11:30;;;;;;;6.10;5.70;;;25.10;99.90;;;;;;6323959;28;20222;-63
2022/06/05 06:14:34;;;;;;;7.93;5.47;;;25.70;99.90;;;;;;6324673;28;20225;-63
2022/06/05 06:17:37;;;;;;;6.87;5.53;;;26.00;99.90;;;;;;6324505;28;20240;-63
2022/06/05 06:20:41;;;;;;;5.93;5.53;;;26.40;99.90;;;;;;6324485;28;20244;-63
2022/06/05 06:23:44;;;;;;;6.67;5.20;;;26.80;99.90;;;;;;6324904;28;20233;-63
2022/06/05 06:26:48;;;;;;;5.97;5.40;;;27.10;99.90;;;;;;6324097;28;20230;-63
2022/06/05 06:29:51;;;;;;;6.00;5.50;;;27.40;99.90;;;;;;6324621;28;20566;-63
2022/06/05 06:32:55;;;;;;;8.80;5.50;;;27.70;99.40;;;;;;6328642;28;20229;-64
2022/06/05 06:36:02;;;;;;;6.80;6.10;;;27.90;99.20;;;;;;6329544;28;20666;-63
2022/06/05 06:39:06;;;;;;;5.60;5.10;;;28.20;98.70;;;;;;6328800;28;20691;-63
2022/06/05 06:42:09;;;;;;;6.10;5.70;;;28.50;98.30;;;;;;6329086;28;20281;-63
2022/06/05 06:45:13;;;;;;;5.60;5.20;;;28.70;97.80;;;;;;6329289;28;20225;-63
2022/06/05 06:48:17;;;;;;;6.47;5.87;;;29.20;97.00;;;;;;6328877;28;20311;-62
2022/06/05 06:51:21;;;;;;;5.93;5.17;;;29.50;96.30;;;;;;6328858;28;20571;-62
2022/06/05 06:54:24;;;;;;;6.87;5.80;;;29.50;95.50;;;;;;6324058;28;20574;-62
2022/06/05 06:57:27;;;;;;;6.50;5.13;;;29.10;95.40;;;;;;6328871;28;20691;-63
2022/06/05 07:00:30;;;;;;;7.13;5.50;;;28.90;96.40;;;;;;6328802;28;20229;-63
2022/06/05 07:03:34;;;;;;;8.47;6.43;;;29.30;96.50;;;;;;6328431;28;20225;-63
2022/06/05 07:06:39;;;;;;;5.30;4.90;;;29.60;94.60;;;;;;6328706;28;20225;-63
2022/06/05 07:09:42;;;;;;;6.90;6.20;;;29.60;94.40;;;;;;6328537;28;20233;-62
2022/06/05 07:12:47;;;;;;;5.93;5.47;;;29.50;94.00;;;;;;6328423;28;20248;-62
2022/06/05 07:15:50;;;;;;;6.10;4.70;;;29.60;94.00;;;;;;6328639;28;20236;-63
2022/06/05 07:18:54;;;;;;;5.70;5.20;;;30.50;93.50;;;;;;6328274;28;20232;-63
2022/06/05 07:21:58;;;;;;;8.48;5.43;;;31.90;90.70;;;;;;6328212;28;20229;-62
2022/06/05 07:25:01;;;;;;;5.28;4.93;;;32.70;85.80;;;;;;6328208;28;20555;-62
2022/06/05 07:28:06;;;;;;;5.75;5.25;;;32.70;85.20;;;;;;6328454;28;20241;-62
2022/06/05 07:31:11;;;;;;;5.22;4.78;;;33.00;83.60;;;;;;6328335;28;20234;-64
2022/06/05 07:34:15;;;;;;;5.35;4.45;;;33.60;78.30;;;;;;6328050;28;20244;-64
2022/06/05 07:37:19;;;;;;;5.63;5.13;;;32.90;75.80;;;;;;6328026;28;20690;-63
2022/06/05 07:40:23;;;;;;;6.22;5.65;;;33.40;74.80;;;;;;6327922;28;20230;-63
2022/06/05 07:43:26;;;;;;;4.70;4.38;;;33.70;73.80;;;;;;6326584;28;20221;-63
2022/06/05 07:46:30;;;;;;;5.80;5.05;;;33.10;73.90;;;;;;6327632;28;20226;-63
2022/06/05 07:49:34;;;;;;;5.80;5.40;;;33.00;74.40;;;;;;6327637;28;20567;-63
2022/06/05 07:56:01;;;;;;;5.45;4.95;;;32.00;76.90;;;;;;6323345;28;20504;-65
2022/06/05 07:59:04;;;;;;;5.78;4.60;;;31.60;78.00;;;;;;6327600;28;20359;-64
2022/06/05 08:02:29;;;;;;;4.72;4.43;;;31.20;80.10;;;;;;6327409;28;20226;-64
2022/06/05 08:05:32;;;;;;;5.65;5.03;;;31.30;80.70;;;;;;6324360;28;20319;-64
2022/06/05 08:08:37;;;;;;;5.07;4.57;;;31.40;79.90;;;;;;6325889;28;20225;-64
2022/06/05 08:11:42;;;;;;;6.03;5.45;;;31.80;79.20;;;;;;6322909;28;20245;-64
2022/06/05 08:14:48;;;;;;;5.40;4.90;;;31.90;77.90;;;;;;6327157;28;20234;-64
2022/06/05 08:17:51;;;;;;;5.90;5.38;;;32.00;77.90;;;;;;6326804;28;20225;-64
2022/06/05 08:20:54;;;;;;;6.38;5.78;;;31.70;76.10;;;;;;6301647;28;20234;-64
2022/06/05 08:23:59;;;;;;;6.65;5.28;;;31.90;76.30;;;;;;6314256;28;20221;-64
2022/06/05 08:27:02;;;;;;;5.45;4.90;;;31.20;77.20;;;;;;6325198;28;20714;-65
2022/06/05 08:30:07;;;;;;;6.22;5.70;;;31.10;78.30;;;;;;6326629;28;20241;-65
2022/06/05 08:33:11;;;;;;;5.80;5.30;;;31.40;77.70;;;;;;6326678;28;20239;-64
2022/06/05 08:36:14;;;;;;;5.95;4.22;;;31.80;75.40;;;;;;6327007;28;20229;-64
2022/06/05 08:43:09;;;;;;;4.60;4.20;;;31.50;72.10;;;;;;6249594;28;20232;-64
2022/06/05 08:46:23;;;;;;;4.93;4.40;;;30.50;75.30;;;;;;6326313;28;20226;-64
2022/06/05 08:49:37;;;;;;;5.47;5.07;;;30.00;77.70;;;;;;6326262;28;20221;-64
2022/06/05 08:52:49;;;;;;;6.50;5.23;;;29.60;79.40;;;;;;6325657;28;20248;-64
2022/06/05 08:55:55;;;;;;;5.40;5.00;;;29.20;81.40;;;;;;6325428;28;20211;-64
2022/06/05 08:59:02;;;;;;;6.57;6.07;;;28.80;82.60;;;;;;6325453;28;20737;-64
2022/06/05 09:02:18;;;;;;;6.87;5.60;;;28.30;86.40;;;;;;6321267;28;20232;-64
2022/06/05 09:05:25;;;;;;;7.30;5.40;;;27.80;88.10;;;;;;6325379;28;20553;-64
2022/06/05 09:08:32;;;;;;;5.80;5.40;;;27.60;89.10;;;;;;6326430;28;20236;-64
2022/06/05 09:11:44;;;;;;;6.20;5.80;;;27.50;90.00;;;;;;6325963;28;20233;-64
2022/06/05 09:14:51;;;;;;;5.93;5.43;;;26.90;90.90;;;;;;6325721;28;20371;-64
2022/06/05 09:17:57;;;;;;;6.23;5.63;;;26.90;91.30;;;;;;6325352;28;20687;-64
2022/06/05 09:21:05;;;;;;;6.63;5.87;;;26.80;91.90;;;;;;6325550;28;20233;-64
2022/06/05 09:24:14;;;;;;;6.53;6.03;;;26.60;92.30;;;;;;6325088;28;20320;-64
2022/06/05 09:27:27;;;;;;;6.90;6.20;;;26.50;92.90;;;;;;6325153;28;20232;-64
2022/06/05 09:30:36;;;;;;;6.77;6.23;;;26.30;93.30;;;;;;6325103;28;20252;-64
2022/06/05 09:33:42;;;;;;;6.90;6.30;;;26.20;93.60;;;;;;6325150;28;20226;-64
2022/06/05 09:36:54;;;;;;;6.07;5.57;;;26.30;93.90;;;;;;6325194;28;20325;-65
2022/06/05 09:40:01;;;;;;;6.77;6.27;;;26.40;93.80;;;;;;6325136;28;20670;-65
2022/06/05 09:43:26;;;;;;;8.73;7.63;;;26.70;93.80;;;;;;6324999;28;20241;-65
2022/06/05 09:46:59;;;;;;;7.20;5.93;;;26.80;93.70;;;;;;6325314;28;20695;-64
2022/06/05 09:50:20;;;;;;;7.10;6.40;;;26.60;93.80;;;;;;6325038;28;20217;-64
2022/06/05 09:53:28;;;;;;;6.60;5.90;;;26.60;93.90;;;;;;6324543;28;20595;-64
2022/06/05 10:00:08;;;;;;;6.63;6.03;;;26.90;94.00;;;;;;6323873;28;20236;-64
2022/06/05 10:03:14;;;;;;;9.90;9.10;;;26.90;93.40;;;;;;6324269;28;20670;-65
2022/06/05 10:06:23;;;;;;;7.87;7.17;;;26.90;93.50;;;;;;6314503;28;20287;-64
2022/06/05 10:09:29;;;;;;;7.63;6.90;;;27.00;92.90;;;;;;6324257;28;20241;-65
2022/06/05 10:12:39;;;;;;;7.37;6.57;;;27.10;93.00;;;;;;6324107;28;20245;-65
2022/06/05 10:15:50;;;;;;;8.47;6.80;;;27.20;93.20;;;;;;6324073;28;20232;-64
2022/06/05 10:18:59;;;;;;;6.50;6.00;;;27.00;94.10;;;;;;6324555;28;20245;-64
2022/06/05 10:22:13;;;;;;;6.77;6.20;;;27.50;94.10;;;;;;6324658;28;20311;-64
2022/06/05 10:25:28;;;;;;;7.83;7.23;;;28.00;92.90;;;;;;6324224;28;20234;-64
2022/06/05 10:28:33;;;;;;;6.87;6.37;;;28.10;92.60;;;;;;6324206;28;20225;-64
2022/06/05 10:31:49;;;;;;;7.83;7.17;;;27.90;92.90;;;;;;6324271;28;20225;-64
2022/06/05 10:34:59;;;;;;;7.13;6.53;;;27.80;92.80;;;;;;6324400;28;20331;-64
2022/06/05 10:38:18;;;;;;;7.70;7.03;;;28.10;92.30;;;;;;6324668;28;20228;-64
2022/06/05 10:41:27;;;;;;;7.23;6.63;;;28.20;92.00;;;;;;6324606;28;20236;-64
2022/06/05 10:44:36;;;;;;;7.90;7.30;;;28.30;92.10;;;;;;6324348;28;20236;-64
2022/06/05 10:47:49;;;;;;;7.27;6.77;;;28.30;92.40;;;;;;6323912;28;20226;-64
2022/06/05 10:50:57;;;;;;;7.93;7.30;;;28.40;92.30;;;;;;6323973;28;20244;-64
2022/06/05 10:54:21;;;;;;;7.20;6.10;;;28.70;91.60;;;;;;6323606;28;20257;-64
2022/06/05 10:57:32;;;;;;;7.87;6.37;;;29.20;91.10;;;;;;6323905;28;20321;-64
2022/06/05 11:00:45;;;;;;;7.27;6.57;;;29.90;90.30;;;;;;6324161;28;20226;-64
2022/06/05 11:03:57;;;;;;;19.87;18.00;;;30.40;88.70;;;;;;6323848;28;20234;-64
2022/06/05 11:07:15;;;;;;;7.20;6.60;;;30.60;87.30;;;;;;6315858;28;20234;-63
2022/06/05 11:14:08;;;;;;;5.90;5.50;;;30.10;89.40;;;;;;6322250;28;20226;-65
2022/06/05 11:17:39;;;;;;;6.63;6.22;;;30.60;86.80;;;;;;6321932;28;20233;-64
2022/06/05 11:20:52;;;;;;;7.00;6.30;;;30.80;86.00;;;;;;6322228;28;20546;-65
2022/06/05 11:23:58;;;;;;;6.60;6.00;;;30.90;85.20;;;;;;6323299;28;20222;-64
2022/06/05 11:27:10;;;;;;;7.00;6.05;;;30.60;85.50;;;;;;6314030;28;20230;-64
2022/06/05 11:30:20;;;;;;;6.50;6.00;;;30.40;85.60;;;;;;6312633;28;20234;-65
2022/06/05 11:33:25;;;;;;;8.03;7.40;;;29.90;86.60;;;;;;6326828;28;20291;-64
2022/06/05 11:36:41;;;;;;;7.30;6.70;;;29.50;87.80;;;;;;6326970;28;20668;-64
2022/06/05 11:39:54;;;;;;;7.80;7.20;;;29.10;89.00;;;;;;6316525;28;20223;-64
2022/06/05 11:43:14;;;;;;;9.13;8.47;;;28.70;90.00;;;;;;6302530;28;20261;-64
2022/06/05 11:46:26;;;;;;;9.53;8.47;;;28.10;90.90;;;;;;6302132;28;20280;-64
2022/06/05 11:49:40;;;;;;;9.13;8.33;;;27.70;91.80;;;;;;6302151;28;20223;-64
2022/06/05 11:52:54;;;;;;;7.87;7.37;;;27.30;92.60;;;;;;6301992;28;20669;-64
2022/06/05 11:56:05;;;;;;;15.70;8.50;;;26.90;93.40;;;;;;6302190;28;20241;-64
2022/06/05 11:59:17;;;;;;;8.87;7.97;;;26.60;94.00;;;;;;6302815;28;20235;-64
2022/06/05 12:02:46;;;;;;;10.23;8.17;;;26.40;94.60;;;;;;6302625;28;20277;-63
2022/06/05 12:05:57;;;;;;;9.37;7.30;;;26.40;95.40;;;;;;6302696;28;20227;-63
2022/06/05 12:09:05;;;;;;;8.20;7.60;;;26.40;95.30;;;;;;6302063;28;20249;-63
2022/06/05 12:12:16;;;;;;;8.90;8.10;;;26.40;95.40;;;;;;6302027;28;20242;-64
2022/06/05 12:15:25;;;;;;;8.27;7.57;;;26.30;95.60;;;;;;6297650;28;20301;-64
2022/06/05 12:18:33;;;;;;;8.10;7.50;;;26.40;95.80;;;;;;6301638;28;20249;-64
2022/06/05 12:21:53;;;;;;;9.10;8.23;;;26.50;95.50;;;;;;6313330;28;20221;-64
2022/06/05 12:25:02;;;;;;;9.40;8.70;;;26.20;95.90;;;;;;6324588;28;20218;-63
2022/06/05 12:28:11;;;;;;;7.73;7.20;;;26.10;95.90;;;;;;6317673;28;20214;-63
2022/06/05 12:31:18;;;;;;;9.47;8.77;;;26.20;96.00;;;;;;6316193;28;20210;-63
2022/06/05 12:34:26;;;;;;;8.03;7.50;;;26.10;96.40;;;;;;6319435;28;20219;-62
2022/06/05 12:37:37;;;;;;;10.50;9.60;;;26.20;96.50;;;;;;6324621;28;20217;-63
2022/06/05 12:40:48;;;;;;;10.00;9.00;;;26.20;96.50;;;;;;6326158;28;20553;-63
2022/06/05 12:44:04;;;;;;;9.27;8.47;;;26.10;96.50;;;;;;6301447;28;20241;-63
2022/06/05 12:47:16;;;;;;;9.60;8.70;;;26.00;96.80;;;;;;6301365;28;20191;-63
2022/06/05 12:50:30;;;;;;;8.50;7.90;;;26.10;96.90;;;;;;6309909;28;20226;-63
2022/06/05 12:53:38;;;;;;;8.90;8.10;;;26.10;96.90;;;;;;6326127;28;20230;-63
2022/06/05 12:56:48;;;;;;;9.80;8.93;;;26.10;96.90;;;;;;6326230;28;20577;-64
2022/06/05 12:59:59;;;;;;;11.07;10.27;;;26.10;96.90;;;;;;6320192;28;20214;-64
2022/06/05 13:03:11;;;;;;;11.30;10.37;;;26.10;96.80;;;;;;6321233;28;20232;-65
2022/06/05 13:06:19;;;;;;;10.90;10.10;;;26.10;96.70;;;;;;6319464;28;20222;-63
2022/06/05 13:09:32;;;;;;;9.77;8.87;;;26.20;96.90;;;;;;6318685;28;20241;-64
2022/06/05 13:12:41;;;;;;;11.73;10.63;;;26.20;96.90;;;;;;6316902;28;20221;-67
2022/06/05 13:15:50;;;;;;;11.13;10.13;;;26.20;96.70;;;;;;6318812;28;20240;-68
2022/06/05 13:19:16;;;;;;;10.63;9.73;;;26.20;96.80;;;;;;6327293;28;20573;-60
2022/06/05 13:22:27;;;;;;;12.30;10.97;;;26.20;97.20;;;;;;6326328;28;20229;-62
2022/06/05 13:25:45;;;;;;;11.73;10.50;;;26.20;97.20;;;;;;6326103;28;20560;-62
2022/06/05 13:28:56;;;;;;;11.37;10.50;;;26.20;97.20;;;;;;6324627;28;20222;-61
2022/06/05 13:32:06;;;;;;;11.07;10.20;;;26.20;97.20;;;;;;6324834;28;20218;-61
2022/06/05 13:35:36;;;;;;;11.07;10.07;;;26.20;97.30;;;;;;6325124;28;20252;-62
2022/06/05 13:38:51;;;;;;;12.47;11.30;;;26.30;97.70;;;;;;6324587;28;20245;-62
2022/06/05 13:42:00;;;;;;;14.50;13.17;;;26.30;97.40;;;;;;6324640;28;20249;-62
2022/06/05 13:45:22;;;;;;;12.37;11.27;;;26.20;97.40;;;;;;6325160;28;20226;-62
2022/06/05 13:48:30;;;;;;;14.37;13.17;;;26.20;97.40;;;;;;6325317;28;20236;-62
2022/06/05 13:51:36;;;;;;;12.50;11.50;;;26.20;97.50;;;;;;6325041;28;20225;-62
2022/06/05 13:54:48;;;;;;;15.10;13.77;;;26.10;97.50;;;;;;6325089;28;20229;-62
2022/06/05 13:57:58;;;;;;;13.40;12.17;;;26.00;98.10;;;;;;6324820;28;20232;-62
2022/06/05 14:01:10;;;;;;;11.77;10.67;;;26.00;98.00;;;;;;6324637;28;20818;-63
2022/06/05 14:04:18;;;;;;;12.20;11.17;;;25.90;97.90;;;;;;6324209;28;20305;-63
2022/06/05 14:07:22;;;;;;;13.07;11.87;;;25.80;97.90;;;;;;6324505;28;20226;-62
2022/06/05 14:10:28;;;;;;;12.23;11.23;;;25.80;98.00;;;;;;6324270;28;20236;-62
2022/06/05 14:13:40;;;;;;;12.10;11.10;;;25.70;98.40;;;;;;6324671;28;20236;-63
2022/06/05 14:16:48;;;;;;;13.10;12.07;;;25.70;98.90;;;;;;6323810;28;20233;-63
2022/06/05 14:19:56;;;;;;;12.47;11.37;;;25.50;98.80;;;;;;6324032;28;20543;-62
2022/06/05 14:23:11;;;;;;;13.73;12.63;;;25.60;99.00;;;;;;6323900;28;20226;-62
2022/06/05 14:26:17;;;;;;;12.87;11.87;;;25.50;99.30;;;;;;6325037;28;20225;-62
2022/06/05 14:29:24;;;;;;;13.13;12.13;;;25.60;99.70;;;;;;6326779;28;20222;-63
2022/06/05 14:32:31;;;;;;;12.40;11.50;;;25.50;99.60;;;;;;6326946;28;20271;-63
2022/06/05 14:35:36;;;;;;;12.77;11.67;;;25.50;99.70;;;;;;6325409;28;20221;-62
2022/06/05 14:38:46;;;;;;;12.67;11.50;;;25.50;99.70;;;;;;6327562;28;20236;-62
2022/06/05 14:41:59;;;;;;;13.13;12.17;;;25.50;99.70;;;;;;6328114;28;20686;-62
2022/06/05 14:45:06;;;;;;;13.10;12.10;;;25.50;99.70;;;;;;6324413;28;20225;-64
2022/06/05 14:48:25;;;;;;;13.53;12.43;;;25.50;99.90;;;;;;6321270;28;20690;-64
2022/06/05 14:51:36;;;;;;;14.30;13.10;;;25.50;99.90;;;;;;6325180;28;20232;-64
2022/06/05 14:58:15;;;;;;;13.60;12.60;;;25.40;99.90;;;;;;6320513;28;20293;-63
2022/06/05 15:01:29;;;;;;;13.73;12.53;;;25.40;99.90;;;;;;6320165;28;20672;-64
2022/06/05 15:04:41;;;;;;;12.70;11.70;;;25.50;99.90;;;;;;6304067;28;20233;-65
2022/06/05 15:07:50;;;;;;;14.80;13.57;;;25.40;99.90;;;;;;6303385;28;20227;-65
2022/06/05 15:10:58;;;;;;;13.50;12.40;;;25.40;99.90;;;;;;6302430;28;20214;-65
2022/06/05 15:14:09;;;;;;;12.73;11.73;;;25.40;99.90;;;;;;6303312;28;20228;-64
2022/06/05 15:17:27;;;;;;;12.37;11.47;;;25.30;99.90;;;;;;6303063;28;20223;-64
2022/06/05 15:20:52;;;;;;;13.93;12.73;;;25.30;99.90;;;;;;6304244;28;20563;-64
2022/06/05 15:24:04;;;;;;;12.80;11.83;;;25.30;99.90;;;;;;6303277;28;20241;-63
2022/06/05 15:27:17;;;;;;;13.67;12.53;;;25.30;99.90;;;;;;6303807;28;20229;-64
2022/06/05 15:30:27;;;;;;;12.70;11.70;;;25.30;99.90;;;;;;6302702;28;20233;-65
2022/06/05 15:33:37;;;;;;;13.63;12.30;;;25.30;99.90;;;;;;6318981;28;20356;-64
2022/06/05 15:36:53;;;;;;;14.10;13.00;;;25.30;99.90;;;;;;6328406;28;20312;-65
2022/06/05 15:40:03;;;;;;;13.27;12.27;;;25.30;99.90;;;;;;6328068;28;20233;-64
2022/06/05 15:43:18;;;;;;;14.20;13.10;;;25.20;99.90;;;;;;6327881;28;20241;-65
2022/06/05 15:46:32;;;;;;;14.47;13.03;;;25.20;99.90;;;;;;6308921;28;20296;-65
2022/06/05 15:49:50;;;;;;;13.17;12.07;;;25.10;99.90;;;;;;6302316;28;20227;-64
2022/06/05 15:53:12;;;;;;;13.40;12.50;;;25.10;99.90;;;;;;6305606;28;20566;-63
2022/06/05 15:56:26;;;;;;;13.57;12.47;;;25.10;99.90;;;;;;6327645;28;20226;-63
2022/06/05 15:59:41;;;;;;;14.53;13.30;;;25.10;99.90;;;;;;6328950;28;20223;-63
2022/06/05 16:02:46;;;;;;;14.03;12.90;;;25.10;99.90;;;;;;6322055;28;20230;-63
2022/06/05 16:05:52;;;;;;;14.03;13.03;;;25.20;99.90;;;;;;6323081;28;20244;-64
2022/06/05 16:09:06;;;;;;;11.50;10.70;;;25.20;99.90;;;;;;6327757;28;20226;-63
2022/06/05 16:12:16;;;;;;;13.70;12.60;;;25.20;99.90;;;;;;6327217;28;20265;-63
2022/06/05 16:15:34;;;;;;;15.13;13.63;;;25.10;99.90;;;;;;6327833;28;20231;-64
2022/06/05 16:18:42;;;;;;;13.70;12.60;;;25.10;99.90;;;;;;6327310;28;20229;-63
2022/06/05 16:21:53;;;;;;;12.70;11.53;;;25.20;99.90;;;;;;6327803;28;20263;-63
2022/06/05 16:25:08;;;;;;;13.47;12.20;;;25.20;99.90;;;;;;6329738;28;20667;-63
2022/06/05 16:28:16;;;;;;;12.80;11.80;;;25.20;99.90;;;;;;6318519;28;20241;-63
2022/06/05 16:31:32;;;;;;;14.73;13.53;;;25.20;99.90;;;;;;6327769;28;20226;-63
2022/06/05 16:38:07;;;;;;;13.40;12.40;;;25.10;99.90;;;;;;6329845;28;20237;-62
2022/06/05 16:41:12;;;;;;;13.37;12.27;;;25.10;99.90;;;;;;6328766;28;20198;-63
2022/06/05 16:44:23;;;;;;;13.50;12.43;;;25.00;99.90;;;;;;6329398;28;20553;-63